Tiempo atmosférico en la estación meteorológica de Guijo De Granadilla, Cáceres (393 m.)



Fecha
DESCASC
Temp. máxima en grados centígrados (hora)
DESCASC
Temp. mínima en grados centígrados (hora)
DESCASC
Temp. media en grados centígrados
DESCASC
Racha de viento máxima en m/sg (hora)
DESCASC
Velocidad máxima media en intervalos de 10 minutos(hora)
DESCASC
Precipitaciones diarias en mm
DESCASC
Precipitaciones de 00:00 a 06:00 en mm
DESCASC
Precipitaciones de 06:00 a 12:00 en mm
DESCASC
Precipitaciones de 12:00 a 18:00 en mm
DESCASC
Precipitaciones de 18:00 a 24:00 en mm
DESCASC
05-04-2020 18 (14:20) 12.3 (08:20) 15.2 12.78 (11:30) 7.22 (11:40) 13.8 0 0 4.2 9.6
04-04-2020 20 (14:00) 4.4 (08:10) 12.2 10.83 (14:10) 6.39 (14:30) 0 0 0 0 0
03-04-2020 20.3 (18:10) 7.2 (08:20) 13.7 7.22 (00:30) 4.17 (00:10) 0 0 0 0 0
02-04-2020 17.5 (18:10) 4.9 (00:00) 11.2 10.56 (13:50) 6.67 (17:30) 0 0 0 0 0
01-04-2020 14.9 (19:10) 3.2 (00:00) 9 8.33 (14:40) 4.17 (00:10) 2 1.8 0 0.2 0
31-03-2020 11.6 (17:50) 4.1 (00:00) 7.9 9.17 (23:50) 5 (23:50) 4.2 0.2 2.2 0.4 1.4
30-03-2020 11.2 (00:00) 4.3 (00:00) 7.8 12.5 (12:40) 8.06 (14:00) 0.8 0 0 0.2 0.6
29-03-2020 20.2 (15:30) 5.7 (00:00) 13 7.5 (17:50) 4.17 (19:00) 0 0 0 0 0
28-03-2020 18.2 (16:10) 2 (00:00) 10.1 7.22 (16:20) 4.44 (16:30) 0 0 0 0 0
27-03-2020 14.2 (17:20) 4.7 (00:00) 9.4 10.28 (14:10) 6.11 (14:10) 0 0 0 0 0
26-03-2020 20.5 (16:30) 7.5 (00:00) 14 7.78 (01:00) 4.17 (01:00) 0 0 0 0 0
25-03-2020 19.9 (18:10) 6.7 (00:00) 13.3 9.17 (19:20) 5.83 (19:20) 0 0 0 0 0
24-03-2020 19.1 (16:20) 8 (00:00) 13.6 7.5 (16:50) 3.89 (16:50) 0 0 0 0 0
23-03-2020 16.7 (13:10) 5.6 (00:00) 11.2 8.33 (15:20) 5 (15:20) 1.2 0 0 1.2 0
22-03-2020 17.2 (16:00) 4.5 (07:30) 10.9 6.11 (17:10) 3.61 (17:00) 6 0 0 4.4 1.6
21-03-2020 14 (18:00) 5.7 (00:00) 9.8 11.94 (02:00) 6.67 (02:00) 20.6 8 12.6 0 0
20-03-2020 12.2 (17:30) 9 (00:00) 10.6 7.22 (23:59) 2.78 (20:00) 10 0 6 0.2 3.8
19-03-2020 18.3 (14:00) 8 (00:00) 13.1 4.72 (14:30) 2.5 (14:20) 0 0 0 0 0
18-03-2020 19.3 (14:10) 7.2 (00:00) 13.2 7.22 (02:30) 4.17 (02:30) 0 0 0 0 0
17-03-2020 17 (16:00) 1.8 (00:00) 9.4 5.83 (17:10) 2.78 (00:20) 0 0 0 0 0
16-03-2020 9.3 (11:40) 5.1 (00:00) 7.2 11.11 (12:20) 6.39 (00:40) 8.6 0 0 5.4 3.2
15-03-2020 21.4 (14:20) 6.7 (00:00) 14 12.78 (17:00) 8.06 (17:30) 0 0 0 0 0
14-03-2020 24.2 (17:30) 12 (00:00) 18.1 10.28 (03:50) 6.67 (03:40) 0 0 0 0 0
13-03-2020 21.7 (16:10) 11.3 (01:40) 16.5 9.17 (23:40) 6.11 (23:40) 0 0 0 0 0
12-03-2020 25 (17:10) 9.5 (00:00) 17.3 7.22 (13:10) 4.44 (13:10) 0 0 0 0 0
11-03-2020 25.5 (15:20) 9.4 (00:00) 17.4 4.17 (05:00) 2.78 (05:00) 0 0 0 0 0
10-03-2020 24 (17:00) 7.1 (00:00) 15.5 6.39 (00:30) 3.89 (00:30) 0 0 0 0 0
09-03-2020 20.2 (15:40) 7.3 (00:00) 13.8 10 (11:20) 6.39 (11:10) 0 0 0 0 0

Gráficas

Temp. máximas Temp. mínimas Temp. medias Precipitaciones Rachas de viento máximas Velocidades máximas media en intervalos de 10 minutos

Datos horarios

Fecha y hora oficial Temperatura (ºC) Velocidad del viento (km/h) Dirección del viento Racha (km/h) Dirección de racha Precipitación (mm) Presión (hPa) Tendencia (hPa) Humedad (%)
2020-04-07 23:00:00 13.7 0 Calma 5 Nordeste 0 -- -- 92
2020-04-07 22:00:00 15.1 0 Calma 4 Sur 0 -- -- 89
2020-04-07 21:00:00 17.1 4 Sur 9 Sur 0 -- -- 85
2020-04-07 20:00:00 17.1 4 Sur 13 Sur 0 -- -- 85
2020-04-07 19:00:00 17.1 9 Sur 17 Sur 0 -- -- 88
2020-04-07 18:00:00 16 8 Sur 28 Sudoeste 5.2 -- -- 91
2020-04-07 17:00:00 17.7 15 Sur 31 Sur 0 -- -- 80
2020-04-07 16:00:00 19.1 9 Sur 25 Sudeste 0 -- -- 73
2020-04-07 15:00:00 17 18 Sur 29 Sur 0 -- -- 83
2020-04-07 14:00:00 17.2 14 Sur 31 Sudeste 0 -- -- 79
2020-04-07 13:00:00 15.5 14 Sudeste 24 Sur 0 -- -- 86
2020-04-07 12:00:00 16.1 11 Sur 22 Sur 0 -- -- 86
2020-04-07 11:00:00 14.8 7 Sudoeste 11 Sudoeste 0 -- -- 90
2020-04-07 10:00:00 13.5 2 Noroeste 5 Noroeste 0.2 -- -- 96
2020-04-07 09:00:00 12.4 0 Calma 5 Nordeste 0 -- -- 96
2020-04-07 08:00:00 12.5 5 Oeste 9 Oeste 0 -- -- 96
2020-04-07 07:00:00 12.5 3 Sudoeste 9 Oeste 0.4 -- -- 96
2020-04-07 06:00:00 12.2 4 Oeste 9 Oeste 0.4 -- -- 96
2020-04-07 05:00:00 12.4 2 Norte 5 Oeste 0.2 -- -- 95
2020-04-07 04:00:00 12.8 5 Este 12 Sur 0.8 -- -- 94
2020-04-07 03:00:00 13.2 8 Sur 16 Sur 0.4 -- -- 94
2020-04-07 02:00:00 13.1 6 Sudoeste 15 Sudoeste 0 -- -- 95
2020-04-07 01:00:00 12.8 4 Oeste 8 Oeste 0 -- -- 93
2020-04-07 00:00:00 13.3 4 Sudoeste 9 Sudoeste 0 -- -- 93
2020-04-06 23:00:00 13.4 0 Calma 9 Sur 0.2 -- -- 91
2020-04-06 22:00:00 14.2 6 Sur 10 Sur 0 -- -- 89
2020-04-06 21:00:00 14.7 0 Calma -- -- 0 -- -- 90
2020-04-06 20:00:00 15.3 3 Sudoeste 5 Sudoeste 0 -- -- 85
2020-04-06 19:00:00 15.5 3 Noroeste 6 Oeste 0 -- -- 82
2020-04-06 18:00:00 16 4 Sudoeste 9 Oeste 0 -- -- 78
2020-04-06 17:00:00 16.7 5 Oeste 10 Oeste 0 -- -- 71
2020-04-06 16:00:00 16.7 6 Sudoeste 17 Sudoeste 0.2 -- -- 73
2020-04-06 15:00:00 16 7 Sur 22 Sur 0 -- -- 71
2020-04-06 14:00:00 15.1 11 Sudoeste 20 Sudoeste 0 -- -- 80
2020-04-06 13:00:00 14.4 6 Sudoeste 14 Sudoeste 0 -- -- 84
2020-04-06 12:00:00 14.2 12 Sudoeste 17 Sudoeste 0 -- -- 84
2020-04-06 11:00:00 13.2 7 Sur 12 Sudoeste 0 -- -- 89
2020-04-06 10:00:00 12.3 6 Sudoeste 11 Oeste 0 -- -- 93
2020-04-06 09:00:00 11.9 5 Sur 15 Sudoeste 0 -- -- 95
2020-04-06 08:00:00 12 10 Sudoeste 17 Sudoeste 0 -- -- 95
2020-04-06 07:00:00 12.4 8 Sudoeste 14 Sudoeste 0 -- -- 94
2020-04-06 06:00:00 13 9 Sudoeste 17 Sudoeste 0 -- -- 95
2020-04-06 05:00:00 13.2 7 Sudoeste 16 Sudoeste 0 -- -- 95
2020-04-06 04:00:00 13.7 9 Sudoeste 20 Sudoeste 0 -- -- 93
2020-04-06 03:00:00 13.9 12 Sur 23 Sur 0 -- -- 93
2020-04-06 02:00:00 14 12 Sur 23 Sur 0 -- -- 92
2020-04-06 01:00:00 14 12 Sur 24 Sur 0 -- -- 94
2020-04-06 00:00:00 14 13 Sur 24 Sur 0.2 -- -- 94
2020-04-05 23:00:00 14 13 Sur 24 Sur 1 -- -- 94
2020-04-05 22:00:00 13.9 13 Sur 24 Sur 0.6 -- -- 95
2020-04-05 21:00:00 14 13 Sur 27 Sudoeste 5.4 -- -- 94
2020-04-05 20:00:00 14.3 6 Sur 21 Sur 1.8 -- -- 91
2020-04-05 19:00:00 14.9 10 Sur 19 Sudeste 0.6 -- -- 86
2020-04-05 18:00:00 15 10 Sur 27 Sudeste 0.6 -- -- 85
2020-04-05 17:00:00 15.1 9 Sudeste 18 Sudeste 0.8 -- -- 84
2020-04-05 16:00:00 13.9 12 Sudoeste 32 Sur 2.8 -- -- 87
2020-04-05 15:00:00 16.4 19 Sur 41 Sur 0 -- -- 65
2020-04-05 14:00:00 17.2 21 Sudeste 38 Sudeste 0 -- -- 58
2020-04-05 13:00:00 16.2 23 Sudeste 43 Sudeste 0 -- -- 60
2020-04-05 12:00:00 15.2 26 Sudeste 46 Sur 0 -- -- 61
2020-04-05 11:00:00 14.3 20 Sur 40 Sur 0 -- -- 62
2020-04-05 10:00:00 14.5 17 Sur 36 Sur 0 -- -- 63
2020-04-05 09:00:00 12.9 13 Sur 27 Sur 0 -- -- 70
2020-04-05 08:00:00 13.1 17 Sur 36 Sur 0 -- -- 70
2020-04-05 07:00:00 13.5 9 Sur 19 Sur 0 -- -- 67
2020-04-05 06:00:00 13.6 10 Sur 27 Sudeste 0 -- -- 67
2020-04-05 05:00:00 13.6 14 Sur 23 Sudeste 0 -- -- 65
2020-04-05 04:00:00 13.3 12 Sudeste 26 Sur 0 -- -- 67
2020-04-05 03:00:00 13.2 8 Sur 26 Sur 0 -- -- 66
2020-04-05 02:00:00 13.5 14 Sur 25 Sur 0 -- -- 65
2020-04-05 01:00:00 12.9 6 Sur 18 Sudeste 0 -- -- 68
2020-04-05 00:00:00 12.6 3 Sudeste 6 Sudeste 0 -- -- 68
2020-04-04 23:00:00 13.8 4 Sudoeste 26 Sur 0 -- -- 63
2020-04-04 22:00:00 14.9 13 Sudoeste 23 Sudoeste 0 -- -- 57
2020-04-04 21:00:00 16.2 12 Sur 21 Sur 0 -- -- 51
2020-04-04 20:00:00 17.5 12 Sur 30 Sur 0 -- -- 47
2020-04-04 19:00:00 18.2 14 Sur 33 Sur 0 -- -- 46
2020-04-04 18:00:00 18.4 17 Sur 31 Sur 0 -- -- 45
2020-04-04 17:00:00 18.7 18 Sur 36 Sur 0 -- -- 44
2020-04-04 16:00:00 20 16 Sur 35 Sudeste 0 -- -- 43
2020-04-04 15:00:00 19.5 19 Sudeste 39 Este 0 -- -- 41
2020-04-04 14:00:00 20 21 Sudeste 37 Sudeste 0 -- -- 41
2020-04-04 13:00:00 19 14 Sudeste 38 Sudeste 0 -- -- 48
2020-04-04 12:00:00 18.3 16 Sudeste 27 Sur 0 -- -- 46
2020-04-04 11:00:00 14.2 3 Noroeste 6 Noroeste 0 -- -- 64
2020-04-04 10:00:00 10.4 3 Noroeste 9 Norte 0 -- -- 71
2020-04-04 09:00:00 6.6 2 Nordeste 6 Nordeste 0 -- -- 91
2020-04-04 08:00:00 4.5 3 Sudoeste 10 Sur 0 -- -- 91
2020-04-04 07:00:00 6.2 6 Nordeste 9 Nordeste 0 -- -- 88
2020-04-04 06:00:00 7.1 5 Nordeste 11 Este 0 -- -- 85
2020-04-04 05:00:00 7.4 7 Nordeste 11 Nordeste 0 -- -- 85
2020-04-04 04:00:00 7.7 7 Nordeste 10 Nordeste 0 -- -- 85
2020-04-04 03:00:00 8.1 6 Nordeste 9 Nordeste 0 -- -- 84
2020-04-04 02:00:00 8.6 7 Nordeste 9 Nordeste 0 -- -- 84
2020-04-04 01:00:00 9.1 5 Nordeste 9 Este 0 -- -- 84
2020-04-04 00:00:00 9.7 3 Nordeste 6 Noroeste 0 -- -- 77
2020-04-03 23:00:00 11 4 Norte 7 Sur 0 -- -- 69
2020-04-03 22:00:00 14.6 6 Sur 10 Sudeste 0 -- -- 50
2020-04-03 21:00:00 16.2 6 Sudeste 11 Sur 0 -- -- 46
2020-04-03 20:00:00 19.1 6 Sur 19 Sudoeste 0 -- -- 40
2020-04-03 19:00:00 19.7 8 Sur 19 Sudeste 0 -- -- 35
2020-04-03 18:00:00 20.1 10 Sudoeste 21 Sur 0 -- -- 36
2020-04-03 17:00:00 19.8 9 Sur 19 Sur 0 -- -- 36
2020-04-03 16:00:00 19.8 6 Sudeste 21 Sur 0 -- -- 38
2020-04-03 15:00:00 19.2 5 Sudoeste 19 Sur 0 -- -- 39
2020-04-03 14:00:00 18.3 6 Sudoeste 17 Sudoeste 0 -- -- 40
2020-04-03 13:00:00 16.8 4 Norte 11 Nordeste 0 -- -- 46
2020-04-03 12:00:00 14.6 6 Nordeste 18 Nordeste 0 -- -- 53
2020-04-03 11:00:00 12.6 13 Nordeste 22 Norte 0 -- -- 58
2020-04-03 10:00:00 10.4 13 Norte 21 Norte 0 -- -- 64
2020-04-03 09:00:00 8.3 12 Norte 19 Norte 0 -- -- 73
2020-04-03 08:00:00 7.4 9 Nordeste 13 Nordeste 0 -- -- 79
2020-04-03 07:00:00 8.1 10 Nordeste 20 Norte 0 -- -- 76
2020-04-03 06:00:00 8.6 12 Nordeste 20 Nordeste 0 -- -- 75
2020-04-03 05:00:00 9 7 Nordeste 17 Norte 0 -- -- 75
2020-04-03 04:00:00 9.1 7 Nordeste 15 Nordeste 0 -- -- 77
2020-04-03 03:00:00 9.7 8 Nordeste 18 Nordeste 0 -- -- 75
2020-04-03 02:00:00 10.4 8 Nordeste 15 Norte 0 -- -- 72
2020-04-03 01:00:00 10.7 6 Norte 26 Norte 0 -- -- 69
2020-04-03 00:00:00 11.5 17 Norte 28 Norte 0 -- -- 66
2020-04-02 23:00:00 11.5 13 Norte 27 Norte 0 -- -- 67
2020-04-02 22:00:00 13.1 13 Nordeste 24 Nordeste 0 -- -- 60
2020-04-02 21:00:00 14.3 16 Nordeste 29 Nordeste 0 -- -- 57
2020-04-02 20:00:00 15.8 11 Norte 30 Norte 0 -- -- 55
2020-04-02 19:00:00 16.7 17 Nordeste 32 Norte 0 -- -- 48
2020-04-02 18:00:00 17.4 19 Norte 37 Norte 0 -- -- 49
2020-04-02 17:00:00 17.1 19 Norte 35 Norte 0 -- -- 49
2020-04-02 16:00:00 16.8 21 Norte 36 Norte 0 -- -- 51
2020-04-02 15:00:00 16.5 19 Norte 38 Norte 0 -- -- 52
2020-04-02 14:00:00 16 18 Norte 38 Norte 0 -- -- 54
2020-04-02 13:00:00 14.8 21 Norte 32 Norte 0 -- -- 57
2020-04-02 12:00:00 13.7 17 Nordeste 29 Norte 0 -- -- 62
2020-04-02 11:00:00 11.6 17 Norte 30 Norte 0 -- -- 66
2020-04-02 10:00:00 10.1 12 Nordeste 24 Norte 0 -- -- 73
2020-04-02 09:00:00 7.6 10 Nordeste 22 Norte 0 -- -- 82
2020-04-02 08:00:00 4.9 4 Nordeste 11 Nordeste 0 -- -- 89
2020-04-02 07:00:00 5.4 5 Nordeste 17 Norte 0 -- -- 82
2020-04-02 06:00:00 5.5 6 Nordeste 13 Norte 0 -- -- 82
2020-04-02 05:00:00 5.5 4 Este 11 Este 0 -- -- 84
2020-04-02 04:00:00 6.4 6 Nordeste 15 Nordeste 0 -- -- 81
2020-04-02 03:00:00 7.2 8 Norte 18 Nordeste 0 -- -- 83
2020-04-02 02:00:00 6.6 8 Nordeste 12 Nordeste 0 -- -- 89
2020-04-02 01:00:00 5.7 3 Nordeste 7 Nordeste 0 -- -- 90
2020-04-02 00:00:00 6.3 4 Norte 8 Norte 0 -- -- 85
2020-04-01 23:00:00 7.6 3 Oeste 5 Noroeste 0 -- -- 82
2020-04-01 22:00:00 9.2 3 Sudoeste 11 Sudeste 0 -- -- 73
2020-04-01 21:00:00 11.2 6 Sudeste 18 Sudeste 0 -- -- 64
2020-04-01 20:00:00 13.6 9 Sudeste 22 Sudoeste 0 -- -- 52
2020-04-01 19:00:00 14.6 6 Sur 19 Sur 0 -- -- 45
2020-04-01 18:00:00 14.4 12 Sur 23 Sudeste 0 -- -- 47
2020-04-01 17:00:00 13.9 10 Sur 22 Sur 0 -- -- 54
2020-04-01 16:00:00 14.3 10 Sudoeste 30 Sudeste 0 -- -- 50
2020-04-01 15:00:00 13.5 14 Sur 30 Sudeste 0 -- -- 53
2020-04-01 14:00:00 12.6 10 Sur 21 Sudeste 0.2 -- -- 54
2020-04-01 13:00:00 11.7 14 Sur 23 Sur 0 -- -- 61
2020-04-01 12:00:00 9.5 10 Sudoeste 18 Sudoeste 0 -- -- 72
2020-04-01 11:00:00 8.3 0 Calma 6 Nordeste 0 -- -- 77
2020-04-01 10:00:00 6.9 0 Calma 6 Nordeste 0 -- -- 96
2020-04-01 09:00:00 3.8 3 Nordeste 6 Nordeste 0 -- -- 97
2020-04-01 08:00:00 3.5 0 Calma 6 Noroeste 0 -- -- 96
2020-04-01 07:00:00 3.6 4 Noroeste 8 Noroeste 0 -- -- 96
2020-04-01 06:00:00 3.8 4 Noroeste 5 Noroeste 0 -- -- 96
2020-04-01 05:00:00 4 2 Norte 3 Norte 0 -- -- 94
2020-04-01 04:00:00 5.2 0 Calma 14 Sudoeste 0 -- -- 93
2020-04-01 03:00:00 6.2 10 Sudoeste 18 Sudoeste 0 -- -- 93
2020-04-01 02:00:00 6.6 11 Sudoeste 23 Sudoeste 0 -- -- 92
2020-04-01 01:00:00 7.7 12 Sudoeste 23 Sudoeste 1.8 -- -- 93
2020-04-01 00:00:00 8.5 17 Sudoeste 33 Sudoeste 0.8 -- -- 91
2020-03-31 23:00:00 9.9 13 Sur 21 Sur 0 -- -- 84
2020-03-31 22:00:00 10.1 10 Sur 20 Sur 0 -- -- 86
2020-03-31 21:00:00 10.4 8 Sur 14 Sur 0 -- -- 84
2020-03-31 20:00:00 10.4 5 Noroeste 9 Oeste 0 -- -- 87
2020-03-31 19:00:00 11.4 4 Oeste 7 Oeste 0.6 -- -- 82
2020-03-31 18:00:00 11.6 2 Nordeste 9 Nordeste 0 -- -- 73
2020-03-31 17:00:00 11.4 4 Nordeste 13 Este 0 -- -- 72
2020-03-31 16:00:00 10.4 0 Calma 8 Norte 0 -- -- 71
2020-03-31 15:00:00 9.9 3 Norte 9 Este 0 -- -- 77
2020-03-31 14:00:00 9 3 Nordeste 13 Norte 0.4 -- -- 81
2020-03-31 13:00:00 8.1 8 Norte 17 Norte 0 -- -- 75
2020-03-31 12:00:00 7.1 6 Norte 11 Norte 0.2 -- -- 81
2020-03-31 11:00:00 5.8 4 Nordeste 11 Norte 0.6 -- -- 85
2020-03-31 10:00:00 5.5 3 Este 10 Nordeste 0 -- -- 82
2020-03-31 09:00:00 4.3 5 Norte 7 Norte 0.2 -- -- 88
2020-03-31 08:00:00 4.1 3 Nordeste 5 Norte 0.6 -- -- 88
2020-03-31 07:00:00 4.2 3 Sur 6 Oeste 0.6 -- -- 88
2020-03-31 06:00:00 4.6 0 Calma 3 Sudeste 0.2 -- -- 79
2020-03-31 05:00:00 4.6 0 Calma 18 Nordeste 0 -- -- 83
2020-03-31 04:00:00 4.7 11 Nordeste 20 Norte 0 -- -- 76
2020-03-31 03:00:00 4.6 5 Nordeste 15 Nordeste 0 -- -- 81
2020-03-31 02:00:00 4.6 2 Este 18 Nordeste 0 -- -- 85
2020-03-31 01:00:00 4.6 4 Nordeste 10 Nordeste 0 -- -- 85
2020-03-31 00:00:00 4.5 4 Nordeste 17 Nordeste 0.2 -- -- 85
2020-03-30 23:00:00 4.4 10 Nordeste 28 Nordeste 0.2 -- -- 86
2020-03-30 22:00:00 4.5 13 Norte 31 Nordeste 0.2 -- -- 84
2020-03-30 21:00:00 4.9 18 Nordeste 36 Nordeste 0 -- -- 77
2020-03-30 20:00:00 5.6 23 Nordeste 39 Nordeste 0 -- -- 71
2020-03-30 19:00:00 5.9 18 Nordeste 38 Norte 0 -- -- 69
2020-03-30 18:00:00 5.8 22 Nordeste 37 Nordeste 0.2 -- -- 73
2020-03-30 17:00:00 7.5 18 Norte 38 Norte 0 -- -- 62
2020-03-30 16:00:00 8.1 23 Norte 40 Norte 0 -- -- 57
2020-03-30 15:00:00 7.8 24 Norte 44 Nordeste 0 -- -- 59
2020-03-30 14:00:00 7.9 29 Norte 45 Nordeste 0 -- -- 60
2020-03-30 13:00:00 7.4 28 Norte 45 Norte 0 -- -- 66
2020-03-30 12:00:00 7.4 24 Norte 40 Norte 0 -- -- 67
2020-03-30 11:00:00 9.2 24 Norte 40 Nordeste 0 -- -- 59
2020-03-30 10:00:00 8 20 Norte 37 Norte 0 -- -- 61
2020-03-30 09:00:00 8.1 22 Norte 39 Nordeste 0 -- -- 61
2020-03-30 08:00:00 8.6 23 Norte 42 Norte 0 -- -- 66
2020-03-30 07:00:00 8.8 21 Norte 36 Norte 0 -- -- 66
2020-03-30 06:00:00 9.3 19 Norte 33 Norte 0 -- -- 65
2020-03-30 05:00:00 10 16 Norte 25 Norte 0 -- -- 64
2020-03-30 04:00:00 10.6 15 Norte 24 Norte 0 -- -- 63
2020-03-30 03:00:00 8.4 5 Norte 9 Noroeste 0 -- -- 86
2020-03-30 02:00:00 9.8 3 Sudoeste 7 Sur 0 -- -- 82
2020-03-30 01:00:00 10.5 2 Nordeste 8 Norte 0 -- -- 84
2020-03-30 00:00:00 11.2 0 Calma 5 Este 0 -- -- 74
2020-03-29 23:00:00 12.5 4 Este 6 Oeste 0 -- -- 68
2020-03-29 22:00:00 14.2 4 Oeste 9 Oeste 0 -- -- 54
2020-03-29 21:00:00 15.4 6 Oeste 13 Sudoeste 0 -- -- 50
2020-03-29 20:00:00 18.1 7 Oeste 21 Sudoeste 0 -- -- 43
2020-03-29 19:00:00 18.9 15 Sudoeste 22 Sudoeste 0 -- -- 39
2020-03-29 18:00:00 19.4 12 Sudoeste 27 Sudoeste 0 -- -- 37
2020-03-29 17:00:00 19.7 12 Sudoeste 22 Sudoeste 0 -- -- 34
2020-03-29 16:00:00 20.2 13 Sudoeste 22 Sudoeste 0 -- -- 33
2020-03-29 15:00:00 19.8 7 Sudoeste 17 Sur 0 -- -- 34
2020-03-29 14:00:00 19.4 6 Oeste 12 Oeste 0 -- -- 33
2020-03-29 13:00:00 18.3 3 Sur 8 Sudoeste 0 -- -- 40
2020-03-29 12:00:00 15.5 3 Oeste 9 Norte 0 -- -- 50
2020-03-29 11:00:00 12.6 5 Norte 13 Norte 0 -- -- 56
2020-03-29 10:00:00 10.3 9 Nordeste 19 Norte 0 -- -- 63
2020-03-29 09:00:00 7.2 6 Nordeste 14 Nordeste 0 -- -- 76
2020-03-29 08:00:00 6.3 8 Nordeste 14 Este 0 -- -- 79
2020-03-29 07:00:00 6.2 8 Nordeste 14 Nordeste 0 -- -- 83
2020-03-29 06:00:00 5.8 5 Nordeste 9 Nordeste 0 -- -- 86
2020-03-29 05:00:00 6 6 Nordeste 10 Nordeste 0 -- -- 88
2020-03-29 03:00:00 7.3 5 Nordeste 9 Norte 0 -- -- 84
2020-03-29 01:00:00 7.4 4 Nordeste 7 Nordeste 0 -- -- 84
2020-03-29 00:00:00 7.4 5 Norte 7 Norte 0 -- -- 83
2020-03-28 23:00:00 7.9 3 Nordeste 4 Norte 0 -- -- 78
2020-03-28 22:00:00 9.7 0 Calma 7 Noroeste 0 -- -- 72
2020-03-28 21:00:00 11.6 7 Noroeste 10 Noroeste 0 -- -- 60
2020-03-28 20:00:00 13.3 6 Oeste 9 Oeste 0 -- -- 55
2020-03-28 19:00:00 15.7 7 Sudoeste 21 Sur 0 -- -- 43
2020-03-28 18:00:00 16.6 13 Sur 24 Sur 0 -- -- 36
2020-03-28 17:00:00 17.7 10 Sudeste 26 Sudeste 0 -- -- 37
2020-03-28 16:00:00 17.8 11 Sur 24 Sur 0 -- -- 39
2020-03-28 15:00:00 17.3 3 Este 18 Sur 0 -- -- 44
2020-03-28 14:00:00 16.3 5 Noroeste 15 Noroeste 0 -- -- 45
2020-03-28 13:00:00 15.2 4 Sudeste 14 Este 0 -- -- 47
2020-03-28 12:00:00 13.8 4 Sudeste 10 Norte 0 -- -- 47
2020-03-28 11:00:00 10.9 3 Noroeste 8 Noroeste 0 -- -- 54
2020-03-28 10:00:00 9.6 5 Nordeste 10 Nordeste 0 -- -- 62
2020-03-28 09:00:00 6.9 6 Nordeste 14 Nordeste 0 -- -- 75
2020-03-28 08:00:00 4.3 5 Nordeste 9 Norte 0 -- -- 90
2020-03-28 07:00:00 3.3 5 Norte 9 Nordeste 0 -- -- 90
2020-03-28 06:00:00 2.7 3 Nordeste 6 Nordeste 0 -- -- 93
2020-03-28 05:00:00 2.4 3 Nordeste 5 Nordeste 0 -- -- 91
2020-03-28 04:00:00 2.8 3 Norte 7 Nordeste 0 -- -- 91
2020-03-28 03:00:00 4.6 4 Nordeste 10 Nordeste 0 -- -- 91
2020-03-28 02:00:00 3.8 3 Sudoeste 7 Sur 0 -- -- 89
2020-03-28 01:00:00 3.6 2 Nordeste 5 Este 0 -- -- 88
2020-03-28 00:00:00 4.7 0 Calma 5 Sudoeste 0 -- -- 84
2020-03-27 23:00:00 5.7 2 Nordeste 8 Oeste 0 -- -- 81
2020-03-27 22:00:00 6.9 2 Norte 9 Sur 0 -- -- 71
2020-03-27 21:00:00 9.1 4 Sur 13 Sur 0 -- -- 61
2020-03-27 20:00:00 10.2 6 Sur 20 Sur 0 -- -- 61
2020-03-27 19:00:00 12.2 11 Sur 26 Sudeste 0 -- -- 54
2020-03-27 18:00:00 13.7 14 Sur 27 Sudeste 0 -- -- 48
2020-03-27 17:00:00 14.1 14 Sudeste 30 Sudeste 0 -- -- 47
2020-03-27 16:00:00 13.9 15 Sudeste 32 Sudeste 0 -- -- 50
2020-03-27 15:00:00 13.7 18 Sudeste 37 Sudeste 0 -- -- 51
2020-03-27 14:00:00 12.6 19 Sudeste 34 Sudeste 0 -- -- 55
2020-03-27 13:00:00 12.2 4 Oeste 14 Oeste 0 -- -- 51
2020-03-27 12:00:00 12.3 6 Noroeste 12 Oeste 0 -- -- 49
2020-03-27 11:00:00 10.6 6 Norte 24 Norte 0 -- -- 50
2020-03-27 10:00:00 8.6 14 Norte 26 Norte 0 -- -- 57
2020-03-27 09:00:00 6.4 13 Norte 21 Norte 0 -- -- 64
2020-03-27 08:00:00 6 13 Norte 28 Norte 0 -- -- 64
2020-03-27 07:00:00 6.1 15 Norte 30 Norte 0 -- -- 62
2020-03-27 06:00:00 6.5 16 Norte 27 Norte 0 -- -- 60
2020-03-27 05:00:00 7.2 19 Norte 32 Nordeste 0 -- -- 61
2020-03-27 04:00:00 7.6 13 Nordeste 29 Norte 0 -- -- 64
2020-03-27 03:00:00 8.2 16 Norte 27 Norte 0 -- -- 64
2020-03-27 02:00:00 10.6 10 Nordeste 21 Nordeste 0 -- -- 72
2020-03-27 01:00:00 10.5 10 Nordeste 16 Nordeste 0 -- -- 72
2020-03-27 00:00:00 10 6 Este 15 Norte 0 -- -- 72
2020-03-26 23:00:00 9.9 6 Nordeste 12 Nordeste 0 -- -- 66
2020-03-26 22:00:00 9.9 5 Norte 12 Sudoeste 0 -- -- 60
2020-03-26 21:00:00 12.1 7 Nordeste 12 Nordeste 0 -- -- 49
2020-03-26 20:00:00 14.2 7 Noroeste 12 Noroeste 0 -- -- 40
2020-03-26 19:00:00 17.9 10 Noroeste 19 Noroeste 0 -- -- 30
2020-03-26 18:00:00 19.4 12 Noroeste 22 Noroeste 0 -- -- 30
2020-03-26 17:00:00 20 10 Noroeste 21 Noroeste 0 -- -- 32
2020-03-26 16:00:00 19.9 7 Norte 25 Norte 0 -- -- 36
2020-03-26 15:00:00 20 5 Noroeste 14 Oeste 0 -- -- 36
2020-03-26 14:00:00 18.6 7 Nordeste 15 Norte 0 -- -- 40
2020-03-26 13:00:00 18.2 3 Este 16 Nordeste 0 -- -- 41
2020-03-26 12:00:00 16.7 11 Nordeste 23 Norte 0 -- -- 45
2020-03-26 11:00:00 15.2 14 Nordeste 23 Nordeste 0 -- -- 48
2020-03-26 10:00:00 13.4 9 Norte 18 Norte 0 -- -- 62
2020-03-26 09:00:00 11.5 11 Norte 18 Norte 0 -- -- 68
2020-03-26 08:00:00 8.8 11 Norte 15 Nordeste 0 -- -- 76
2020-03-26 07:00:00 8.5 8 Norte 17 Norte 0 -- -- 76
2020-03-26 06:00:00 7.7 3 Norte 12 Norte 0 -- -- 82
2020-03-26 05:00:00 9.2 8 Norte 12 Norte 0 -- -- 78
2020-03-26 04:00:00 10.4 10 Norte 12 Norte 0 -- -- 75
2020-03-26 03:00:00 11.8 4 Norte 15 Norte 0 -- -- 70
2020-03-26 02:00:00 12.5 4 Nordeste 21 Norte 0 -- -- 69
2020-03-26 01:00:00 13.3 15 Nordeste 28 Norte 0 -- -- 68
2020-03-26 00:00:00 12.5 5 Nordeste 19 Oeste 0 -- -- 73
2020-03-25 23:00:00 12.8 5 Sudoeste 15 Norte 0 -- -- 71
2020-03-25 22:00:00 13 6 Norte 18 Noroeste 0 -- -- 70
2020-03-25 21:00:00 15.7 14 Norte 25 Norte 0 -- -- 64
2020-03-25 20:00:00 16.1 13 Oeste 33 Sudoeste 0 -- -- 62
2020-03-25 19:00:00 18.7 18 Sudoeste 31 Sudoeste 0 -- -- 54
2020-03-25 18:00:00 19.5 17 Sudoeste 27 Sudoeste 0 -- -- 53
2020-03-25 17:00:00 19.3 14 Sudoeste 23 Oeste 0 -- -- 54
2020-03-25 16:00:00 19.3 9 Sudoeste 24 Sur 0 -- -- 53
2020-03-25 15:00:00 19 9 Sur 21 Sur 0 -- -- 56
2020-03-25 14:00:00 18.1 11 Sudoeste 18 Sudoeste 0 -- -- 55
2020-03-25 13:00:00 16.9 8 Sur 18 Sudoeste 0 -- -- 61
2020-03-25 12:00:00 16 4 Sudoeste 14 Sur 0 -- -- 60
2020-03-25 11:00:00 14.3 4 Sudoeste 8 Sur 0 -- -- 66
2020-03-25 10:00:00 12.2 3 Oeste 7 Nordeste 0 -- -- 74
2020-03-25 09:00:00 9.8 3 Nordeste 6 Nordeste 0 -- -- 89
2020-03-25 08:00:00 7.1 2 Nordeste 4 Nordeste 0 -- -- 95
2020-03-25 07:00:00 7.4 2 Nordeste 6 Nordeste 0 -- -- 94
2020-03-25 06:00:00 7.2 2 Sudeste 5 Este 0 -- -- 94
2020-03-25 05:00:00 7.3 0 Calma 6 Oeste 0 -- -- 94
2020-03-25 04:00:00 6.9 3 Noroeste 6 Sudoeste 0 -- -- 91
2020-03-25 03:00:00 7.8 5 Sudoeste 7 Sudoeste 0 -- -- 90
2020-03-25 02:00:00 7.9 2 Nordeste 6 Este 0 -- -- 90
2020-03-25 01:00:00 9.5 4 Noroeste 10 Noroeste 0 -- -- 82
2020-03-25 00:00:00 10.7 3 Oeste 10 Noroeste 0 -- -- 78
2020-03-24 23:00:00 11.2 7 Sudoeste 9 Oeste 0 -- -- 78
2020-03-24 22:00:00 12.4 5 Noroeste 10 Oeste 0 -- -- 75
2020-03-24 21:00:00 14 7 Oeste 13 Sudeste 0 -- -- 68
2020-03-24 20:00:00 15.3 7 Sur 13 Sur 0 -- -- 60
2020-03-24 19:00:00 16.8 7 Sudeste 18 Sudeste 0 -- -- 59
2020-03-24 18:00:00 18 10 Sur 22 Sudeste 0 -- -- 51
2020-03-24 17:00:00 17 14 Sudeste 27 Sudeste 0 -- -- 56
2020-03-24 16:00:00 18.7 9 Sudeste 19 Sur 0 -- -- 49
2020-03-24 15:00:00 18.4 11 Sudeste 20 Sudeste 0 -- -- 48
2020-03-24 14:00:00 16.9 4 Este 15 Sudeste 0 -- -- 54
2020-03-24 13:00:00 18 7 Sudeste 14 Este 0 -- -- 54
2020-03-24 12:00:00 15.7 3 Sudoeste 12 Norte 0 -- -- 55
2020-03-24 11:00:00 15.2 5 Nordeste 13 Nordeste 0 -- -- 58
2020-03-24 10:00:00 12.3 6 Norte 18 Norte 0 -- -- 69
2020-03-24 09:00:00 10.2 7 Norte 15 Norte 0 -- -- 77
2020-03-24 08:00:00 9 11 Norte 19 Norte 0 -- -- 82
2020-03-24 07:00:00 8 8 Nordeste 17 Nordeste 0 -- -- 87
2020-03-24 06:00:00 8.7 6 Nordeste 17 Nordeste 0 -- -- 84
2020-03-24 05:00:00 9.3 0 Calma 17 Norte 0 -- -- 85
2020-03-24 04:00:00 9 5 Nordeste 10 Este 0 -- -- 88
2020-03-24 03:00:00 9.8 5 Nordeste 19 Norte 0 -- -- 80
2020-03-24 02:00:00 8.8 6 Nordeste 10 Nordeste 0 -- -- 88
2020-03-24 01:00:00 9.2 0 Calma 11 Nordeste 0 -- -- 91
2020-03-24 00:00:00 9.8 8 Nordeste 15 Nordeste 0 -- -- 91
2020-03-23 23:00:00 8.7 7 Nordeste 12 Norte 0 -- -- 92
2020-03-23 22:00:00 10.5 5 Nordeste 17 Este 0 -- -- 81
2020-03-23 21:00:00 10.2 3 Sudeste 8 Este 0 -- -- 90
2020-03-23 20:00:00 11.8 0 Calma 7 Nordeste 0 -- -- 84
2020-03-23 19:00:00 14.2 3 Norte 17 Noroeste 0 -- -- 69
2020-03-23 18:00:00 14.1 12 Noroeste 22 Noroeste 0 -- -- 72
2020-03-23 17:00:00 14.8 5 Oeste 13 Sudoeste 0.2 -- -- 72
2020-03-23 16:00:00 11.6 9 Sudeste 30 Sudeste 1 -- -- 84
2020-03-23 15:00:00 15.6 15 Sudeste 26 Sudeste 0 -- -- 61
2020-03-23 14:00:00 15.5 15 Sur 23 Sudeste 0 -- -- 63
2020-03-23 13:00:00 16.4 3 Oeste 13 Sur 0 -- -- 60
2020-03-23 12:00:00 14.8 6 Sur 13 Sur 0 -- -- 63
2020-03-23 11:00:00 13.7 5 Sudoeste 10 Sudoeste 0 -- -- 67
2020-03-23 10:00:00 11 5 Norte 10 Norte 0 -- -- 81
2020-03-23 09:00:00 8.7 4 Nordeste 8 Nordeste 0 -- -- 95
2020-03-23 08:00:00 6.2 5 Norte 8 Norte 0 -- -- 97
2020-03-23 07:00:00 5.8 4 Noroeste 5 Norte 0 -- -- 96
2020-03-23 06:00:00 6.6 0 Calma 12 Sudeste 0 -- -- 96
2020-03-23 05:00:00 6.7 6 Noroeste 9 Noroeste 0 -- -- 96
2020-03-23 04:00:00 7.1 0 Calma 9 Sur 0 -- -- 95
2020-03-23 03:00:00 8.5 3 Sudoeste 7 Nordeste 0 -- -- 93
2020-03-23 02:00:00 8.7 3 Norte 9 Este 0 -- -- 94
2020-03-23 01:00:00 9.8 5 Nordeste 9 Norte 0 -- -- 93
2020-03-23 00:00:00 9.7 0 Calma 8 Nordeste 0 -- -- 93
2020-03-22 23:00:00 10.2 2 Este 11 Noroeste 0 -- -- 91
2020-03-22 22:00:00 10.4 4 Noroeste 10 Norte 0 -- -- 91
2020-03-22 21:00:00 10.5 3 Noroeste 9 Noroeste 1 -- -- 92
2020-03-22 20:00:00 10.6 5 Noroeste 13 Sudeste 0 -- -- 89
2020-03-22 19:00:00 11.6 6 Sur 19 Sudeste 0.6 -- -- 85
2020-03-22 18:00:00 13.4 10 Este 22 Sudoeste 4.4 -- -- 80
2020-03-22 17:00:00 17.1 13 Sudoeste 21 Sudoeste 0 -- -- 54
2020-03-22 16:00:00 17.2 6 Sudoeste 17 Sur 0 -- -- 53
2020-03-22 15:00:00 16.4 8 Sur 17 Sudoeste 0 -- -- 56
2020-03-22 14:00:00 15.4 7 Sudoeste 19 Sudoeste 0 -- -- 58
2020-03-22 13:00:00 14.3 4 Sur 11 Este 0 -- -- 62
2020-03-22 12:00:00 12.9 6 Noroeste 14 Noroeste 0 -- -- 69
2020-03-22 11:00:00 12.9 3 Norte 13 Este 0 -- -- 71
2020-03-22 10:00:00 10.4 0 Calma 7 Sur 0 -- -- 81
2020-03-22 09:00:00 6.6 4 Sur 8 Sur 0 -- -- 97
2020-03-22 08:00:00 5.4 0 Calma 3 Nordeste 0 -- -- 96
2020-03-22 07:00:00 4.9 0 Calma 6 Norte 0 -- -- 94
2020-03-22 06:00:00 5.8 3 Norte 6 Norte 0 -- -- 95
2020-03-22 05:00:00 5.7 3 Nordeste 5 Nordeste 0 -- -- 96
2020-03-22 04:00:00 5.4 0 Calma 11 Norte 0 -- -- 94
2020-03-22 03:00:00 6.1 6 Norte 13 Nordeste 0 -- -- 93
2020-03-22 02:00:00 5.9 5 Norte 9 Nordeste 0 -- -- 95
2020-03-22 01:00:00 5.4 2 Sudeste 6 Noroeste 0 -- -- 94
2020-03-22 00:00:00 5.7 5 Noroeste 8 Noroeste 0 -- -- 93
2020-03-21 23:00:00 6.7 5 Sudoeste 11 Sur 0 -- -- 91
2020-03-21 22:00:00 7.1 4 Noroeste 6 Oeste 0 -- -- 88
2020-03-21 21:00:00 8.8 4 Oeste 9 Noroeste 0 -- -- 83
2020-03-21 20:00:00 10.4 6 Noroeste 8 Noroeste 0 -- -- 73
2020-03-21 19:00:00 12.8 5 Noroeste 12 Noroeste 0 -- -- 62
2020-03-21 18:00:00 14 4 Oeste 10 Sur 0 -- -- 58
2020-03-21 17:00:00 13 5 Sudeste 18 Sudeste 0 -- -- 61
2020-03-21 16:00:00 13.9 8 Sudeste 18 Sudeste 0 -- -- 63
2020-03-21 15:00:00 11.8 8 Sudeste 18 Sudeste 0 -- -- 70
2020-03-21 14:00:00 10.8 9 Sudeste 20 Sudeste 0 -- -- 78
2020-03-21 13:00:00 10.1 8 Sudeste 18 Sudeste 0 -- -- 83
2020-03-21 12:00:00 9.2 6 Sudeste 17 Sur 0.6 -- -- 89
2020-03-21 11:00:00 8.2 3 Sur 6 Sudeste 1 -- -- 92
2020-03-21 10:00:00 8 3 Nordeste 10 Este 2.2 -- -- 96
2020-03-21 09:00:00 8 4 Este 6 Este 2.2 -- -- 96
2020-03-21 08:00:00 8 0 Calma 26 Oeste 4.2 -- -- 95
2020-03-21 07:00:00 8.4 6 Oeste 19 Oeste 2.4 -- -- 96
2020-03-21 06:00:00 8.6 10 Sudoeste 17 Sudoeste 2.2 -- -- 96
2020-03-21 05:00:00 8.7 4 Sudoeste 13 Sudeste 1 -- -- 96
2020-03-21 04:00:00 8.8 3 Sudeste 12 Sudoeste 1.6 -- -- 95
2020-03-21 03:00:00 9 8 Sudoeste 39 Sudoeste 1.6 -- -- 94
2020-03-21 02:00:00 10.2 24 Sur 43 Sur 1.6 -- -- 91
2020-03-21 01:00:00 12.3 14 Este 33 Este 0 -- -- 76
2020-03-21 00:00:00 11.3 9 Sudeste 26 Sudeste 0 -- -- 85
2020-03-20 23:00:00 10.7 2 Este 14 Noroeste 0 -- -- 94
2020-03-20 22:00:00 10.7 6 Noroeste 10 Noroeste 0 -- -- 95
2020-03-20 21:00:00 10.7 4 Noroeste 16 Oeste 1.2 -- -- 95
2020-03-20 20:00:00 11.1 10 Sudoeste 18 Sudoeste 2.6 -- -- 94
2020-03-20 19:00:00 11.6 8 Noroeste 14 Oeste 0 -- -- 89
2020-03-20 18:00:00 11.8 6 Oeste 13 Oeste 0 -- -- 89
2020-03-20 17:00:00 11.7 8 Noroeste 14 Oeste 0 -- -- 92
2020-03-20 16:00:00 12 4 Oeste 9 Sudoeste 0 -- -- 90
2020-03-20 15:00:00 11.1 3 Noroeste 15 Noroeste 0.2 -- -- 93
2020-03-20 14:00:00 10.7 8 Noroeste 14 Noroeste 0 -- -- 95
2020-03-20 13:00:00 10.4 5 Noroeste 13 Oeste 0 -- -- 95
2020-03-20 12:00:00 10.5 3 Noroeste 11 Noroeste 1.2 -- -- 94
2020-03-20 11:00:00 10 6 Oeste 18 Oeste 3.4 -- -- 95
2020-03-20 10:00:00 10.2 6 Sudoeste 12 Oeste 1.4 -- -- 95
2020-03-20 09:00:00 9.8 3 Sudoeste 9 Nordeste 0 -- -- 94
2020-03-20 08:00:00 9.5 6 Nordeste 8 Este 0 -- -- 93
2020-03-20 07:00:00 9.1 2 Norte 4 Norte 0 -- -- 94
2020-03-20 06:00:00 9.2 0 Calma 6 Nordeste 0 -- -- 94
2020-03-20 05:00:00 9.2 5 Este 7 Este 0 -- -- 93
2020-03-20 04:00:00 9.1 3 Nordeste 5 Este 0 -- -- 92
2020-03-20 03:00:00 9.2 0 Calma 4 Sudoeste 0 -- -- 93
2020-03-20 02:00:00 10 0 Calma 7 Nordeste 0 -- -- 90
2020-03-20 01:00:00 10.3 4 Nordeste 6 Nordeste 0 -- -- 91
2020-03-20 00:00:00 10.5 2 Este 6 Nordeste 0 -- -- 89
2020-03-19 23:00:00 10.1 3 Norte 5 Norte 0 -- -- 89
2020-03-19 22:00:00 10.8 3 Norte 5 Este 0 -- -- 85
2020-03-19 21:00:00 12.1 5 Noroeste 11 Noroeste 0 -- -- 78
2020-03-19 20:00:00 12.9 6 Noroeste 8 Noroeste 0 -- -- 73
2020-03-19 19:00:00 15.1 0 Calma 9 Sur 0 -- -- 65
2020-03-19 18:00:00 16 5 Sur 14 Sur 0 -- -- 60
2020-03-19 17:00:00 16.6 9 Sur 14 Sur 0 -- -- 58
2020-03-19 16:00:00 17.3 6 Sudoeste 12 Sudoeste 0 -- -- 56
2020-03-19 15:00:00 17.8 7 Sur 17 Sur 0 -- -- 55
2020-03-19 14:00:00 18.3 6 Sudoeste 13 Sur 0 -- -- 52
2020-03-19 13:00:00 17.3 4 Sudoeste 12 Sur 0 -- -- 53
2020-03-19 12:00:00 15.3 8 Oeste 15 Oeste 0 -- -- 59
2020-03-19 11:00:00 13.2 6 Sudoeste 10 Sudoeste 0 -- -- 73
2020-03-19 10:00:00 11.3 4 Noroeste 8 Noroeste 0 -- -- 79
2020-03-19 09:00:00 8.9 3 Norte 6 Norte 0 -- -- 96
2020-03-19 08:00:00 8 0 Calma 4 Nordeste 0 -- -- 95
2020-03-19 07:00:00 8.3 2 Nordeste 4 Nordeste 0 -- -- 94
2020-03-19 06:00:00 8.7 3 Norte 5 Norte 0 -- -- 94
2020-03-19 05:00:00 8.9 4 Norte 5 Norte 0 -- -- 93
2020-03-19 04:00:00 9.4 2 Nordeste 8 Este 0 -- -- 93
2020-03-19 03:00:00 9.5 4 Nordeste 6 Nordeste 0 -- -- 92
2020-03-19 02:00:00 10.3 6 Este 9 Este 0 -- -- 90
2020-03-19 01:00:00 10.8 3 Norte 10 Noroeste 0 -- -- 84
2020-03-19 00:00:00 11.2 3 Norte 10 Sur 0 -- -- 85
2020-03-18 23:00:00 11 0 Calma 8 Norte 0 -- -- 84
2020-03-18 22:00:00 12 0 Calma 6 Este 0 -- -- 79
2020-03-18 21:00:00 12.7 3 Norte 9 Noroeste 0 -- -- 77
2020-03-18 20:00:00 14.3 3 Oeste 12 Oeste 0 -- -- 67
2020-03-18 19:00:00 14.9 8 Noroeste 13 Sudoeste 0 -- -- 68
2020-03-18 18:00:00 17.1 9 Sudoeste 16 Oeste 0 -- -- 58
2020-03-18 17:00:00 18.3 10 Oeste 19 Sudoeste 0 -- -- 56
2020-03-18 16:00:00 18.9 8 Sur 19 Sudeste 0 -- -- 48
2020-03-18 15:00:00 19.1 8 Sudeste 18 Sudeste 0 -- -- 52
2020-03-18 14:00:00 19.2 3 Oeste 22 Sur 0 -- -- 46
2020-03-18 13:00:00 17.7 5 Este 10 Oeste 0 -- -- 51
2020-03-18 12:00:00 16.2 7 Norte 15 Oeste 0 -- -- 55
2020-03-18 11:00:00 14.3 4 Oeste 9 Sudoeste 0 -- -- 65
2020-03-18 10:00:00 13.2 5 Nordeste 13 Norte 0 -- -- 69
2020-03-18 09:00:00 10.4 6 Norte 10 Norte 0 -- -- 81
2020-03-18 08:00:00 7.5 5 Nordeste 15 Sur 0 -- -- 90
2020-03-18 07:00:00 7.3 3 Sudoeste 10 Este 0 -- -- 91
2020-03-18 06:00:00 8.8 5 Noroeste 13 Noroeste 0 -- -- 85
2020-03-18 05:00:00 9 6 Sudoeste 11 Sudoeste 0 -- -- 84
2020-03-18 04:00:00 10.6 6 Nordeste 13 Nordeste 0 -- -- 78
2020-03-18 03:00:00 11 6 Nordeste 26 Norte 0 -- -- 77
2020-03-18 02:00:00 11.2 8 Nordeste 15 Norte 0 -- -- 76
2020-03-18 01:00:00 10.4 6 Norte 14 Norte 0 -- -- 78
2020-03-18 00:00:00 10.4 3 Este 16 Este 0 -- -- 79
2020-03-17 23:00:00 11 4 Este 18 Norte 0 -- -- 77
2020-03-17 22:00:00 11.1 4 Nordeste 10 Este 0 -- -- 74
2020-03-17 21:00:00 11.6 5 Nordeste 10 Nordeste 0 -- -- 71
2020-03-17 20:00:00 12.8 5 Norte 12 Noroeste 0 -- -- 65
2020-03-17 19:00:00 14.8 4 Noroeste 16 Noroeste 0 -- -- 57
2020-03-17 18:00:00 16.5 3 Norte 21 Este 0 -- -- 48
2020-03-17 17:00:00 16.3 4 Sudoeste 10 Este 0 -- -- 46
2020-03-17 16:00:00 17 9 Nordeste 18 Norte 0 -- -- 45
2020-03-17 15:00:00 15.6 5 Norte 10 Noroeste 0 -- -- 51
2020-03-17 14:00:00 14 4 Noroeste 9 Sudoeste 0 -- -- 56
2020-03-17 13:00:00 13.2 4 Noroeste 14 Oeste 0 -- -- 60
2020-03-17 12:00:00 14.5 4 Sudeste 15 Noroeste 0 -- -- 53
2020-03-17 11:00:00 11.6 3 Norte 11 Norte 0 -- -- 64
2020-03-17 10:00:00 9 3 Norte 8 Sur 0 -- -- 67
2020-03-17 09:00:00 6.6 3 Este 7 Este 0 -- -- 77
2020-03-17 08:00:00 2.2 5 Nordeste 9 Nordeste 0 -- -- 92
2020-03-17 07:00:00 2.4 4 Nordeste 10 Norte 0 -- -- 92
2020-03-17 06:00:00 4.3 5 Este 19 Norte 0 -- -- 85
2020-03-17 05:00:00 4.8 5 Norte 17 Norte 0 -- -- 85
2020-03-17 04:00:00 4.5 10 Norte 17 Norte 0 -- -- 89
2020-03-17 03:00:00 2.8 3 Norte 10 Este 0 -- -- 92
2020-03-17 02:00:00 4.4 8 Norte 13 Norte 0 -- -- 91
2020-03-17 01:00:00 4.8 9 Norte 16 Norte 0 -- -- 91
2020-03-17 00:00:00 5.3 8 Norte 14 Norte 0.2 -- -- 90
2020-03-16 23:00:00 5.3 5 Nordeste 20 Nordeste 0.8 -- -- 91
2020-03-16 22:00:00 5.7 15 Nordeste 32 Norte 0.6 -- -- 88
2020-03-16 21:00:00 5.9 15 Nordeste 33 Nordeste 0.2 -- -- 84
2020-03-16 20:00:00 6.2 17 Nordeste 31 Nordeste 0.4 -- -- 85
2020-03-16 19:00:00 5.6 7 Nordeste 18 Este 1 -- -- 93
2020-03-16 18:00:00 5.6 9 Este 18 Norte 1.2 -- -- 87
2020-03-16 17:00:00 6.6 6 Norte 15 Nordeste 2.4 -- -- 89
2020-03-16 16:00:00 7 9 Nordeste 31 Nordeste 1.4 -- -- 86
2020-03-16 15:00:00 8.7 14 Norte 28 Norte 0.2 -- -- 72
2020-03-16 14:00:00 7.8 17 Norte 39 Norte 0.2 -- -- 74
2020-03-16 13:00:00 8.2 15 Norte 40 Norte 0 -- -- 72
2020-03-16 12:00:00 9.1 20 Norte 37 Nordeste 0 -- -- 59
2020-03-16 11:00:00 8 18 Norte 37 Norte 0 -- -- 64
2020-03-16 10:00:00 6.4 21 Norte 36 Norte 0 -- -- 71
2020-03-16 09:00:00 6.6 21 Norte 33 Norte 0 -- -- 66
2020-03-16 08:00:00 5.7 10 Norte 22 Norte 0 -- -- 71
2020-03-16 07:00:00 5.3 5 Noroeste 19 Norte 0 -- -- 72
2020-03-16 06:00:00 5.4 9 Norte 28 Norte 0 -- -- 69
2020-03-16 05:00:00 5.7 10 Norte 26 Norte 0 -- -- 68
2020-03-16 04:00:00 6 18 Noroeste 29 Norte 0 -- -- 65
2020-03-16 03:00:00 6.1 18 Norte 33 Norte 0 -- -- 63
2020-03-16 02:00:00 5.7 14 Norte 34 Nordeste 0 -- -- 64
2020-03-16 01:00:00 6.3 16 Norte 34 Norte 0 -- -- 64
2020-03-16 00:00:00 7.5 16 Nordeste 33 Nordeste 0 -- -- 60
2020-03-15 23:00:00 8.2 19 Nordeste 33 Nordeste 0 -- -- 65
2020-03-15 22:00:00 9.5 13 Noroeste 33 Noroeste 0 -- -- 63
2020-03-15 21:00:00 11.9 19 Noroeste 33 Noroeste 0 -- -- 65
2020-03-15 20:00:00 13.2 10 Oeste 29 Oeste 0 -- -- 53
2020-03-15 19:00:00 16.1 15 Oeste 44 Sudoeste 0 -- -- 44
2020-03-15 18:00:00 18.3 20 Sudoeste 45 Oeste 0 -- -- 48
2020-03-15 17:00:00 19.9 28 Sudoeste 46 Oeste 0 -- -- 49
2020-03-15 16:00:00 20.5 23 Sudoeste 39 Sudoeste 0 -- -- 49
2020-03-15 15:00:00 21 22 Sudoeste 37 Sudoeste 0 -- -- 47
2020-03-15 14:00:00 20.9 20 Sudoeste 32 Sur 0 -- -- 50
2020-03-15 13:00:00 19.9 15 Sudoeste 24 Sur 0 -- -- 56
2020-03-15 12:00:00 19 14 Sudoeste 25 Sur 0 -- -- 57
2020-03-15 11:00:00 16.3 5 Sudoeste 10 Sudoeste 0 -- -- 54
2020-03-15 10:00:00 12.4 5 Nordeste 8 Nordeste 0 -- -- 64
2020-03-15 09:00:00 8.3 3 Este 9 Nordeste 0 -- -- 78
2020-03-15 08:00:00 6.7 7 Nordeste 10 Nordeste 0 -- -- 82
2020-03-15 07:00:00 7.5 6 Norte 11 Norte 0 -- -- 75
2020-03-15 06:00:00 7.7 5 Nordeste 10 Nordeste 0 -- -- 78
2020-03-15 05:00:00 8.5 8 Nordeste 13 Nordeste 0 -- -- 72
2020-03-15 04:00:00 10.4 10 Nordeste 15 Nordeste 0 -- -- 60
2020-03-15 03:00:00 11.4 7 Nordeste 15 Nordeste 0 -- -- 58
2020-03-15 02:00:00 10.7 9 Este 17 Norte 0 -- -- 63
2020-03-15 01:00:00 13.6 8 Nordeste 17 Nordeste 0 -- -- 48
2020-03-15 00:00:00 13.4 9 Norte 13 Norte 0 -- -- 50
2020-03-14 23:00:00 12.1 6 Nordeste 9 Nordeste 0 -- -- 64
2020-03-14 22:00:00 13.6 7 Este 10 Nordeste 0 -- -- 64
2020-03-14 21:00:00 15 6 Nordeste 10 Noroeste 0 -- -- 65
2020-03-14 20:00:00 18.6 3 Sudoeste 7 Sudoeste 0 -- -- 45
2020-03-14 19:00:00 22.3 5 Sudoeste 13 Sudoeste 0 -- -- 38
2020-03-14 18:00:00 23.5 4 Noroeste 12 Sudoeste 0 -- -- 32
2020-03-14 17:00:00 24 5 Sur 14 Sur 0 -- -- 33
2020-03-14 16:00:00 23.6 8 Sur 16 Sur 0 -- -- 35
2020-03-14 15:00:00 23.2 5 Sudoeste 13 Sudoeste 0 -- -- 37
2020-03-14 14:00:00 22.5 6 Sudoeste 15 Sur 0 -- -- 39
2020-03-14 13:00:00 21.2 4 Sudoeste 9 Sudoeste 0 -- -- 45
2020-03-14 12:00:00 19.1 4 Norte 17 Norte 0 -- -- 49
2020-03-14 11:00:00 17.5 12 Norte 22 Norte 0 -- -- 51
2020-03-14 10:00:00 15.6 13 Norte 28 Norte 0 -- -- 57
2020-03-14 09:00:00 13.7 17 Norte 31 Norte 0 -- -- 61
2020-03-14 08:00:00 12 16 Norte 31 Nordeste 0 -- -- 67
2020-03-14 07:00:00 12.6 18 Norte 34 Nordeste 0 -- -- 65
2020-03-14 06:00:00 12.7 20 Norte 36 Nordeste 0 -- -- 65
2020-03-14 05:00:00 12.7 21 Norte 34 Norte 0 -- -- 68
2020-03-14 04:00:00 13.1 21 Norte 37 Norte 0 -- -- 67
2020-03-14 03:00:00 12.8 19 Norte 35 Norte 0 -- -- 69
2020-03-14 02:00:00 12.9 18 Norte 31 Norte 0 -- -- 70
2020-03-14 01:00:00 13.5 11 Norte 29 Norte 0 -- -- 69
2020-03-14 00:00:00 14.5 18 Norte 33 Norte 0 -- -- 67
2020-03-13 23:00:00 15.2 14 Norte 31 Norte 0 -- -- 67
2020-03-13 22:00:00 15.3 15 Norte 23 Norte 0 -- -- 68
2020-03-13 21:00:00 15.9 10 Norte 24 Norte 0 -- -- 67
2020-03-13 20:00:00 17.5 11 Norte 21 Norte 0 -- -- 61
2020-03-13 19:00:00 18.8 13 Nordeste 23 Nordeste 0 -- -- 58
2020-03-13 18:00:00 20.2 15 Nordeste 23 Nordeste 0 -- -- 53
2020-03-13 17:00:00 20.9 15 Nordeste 21 Nordeste 0 -- -- 52
2020-03-13 16:00:00 21.5 12 Nordeste 19 Este 0 -- -- 48
2020-03-13 15:00:00 20.9 9 Nordeste 17 Nordeste 0 -- -- 52
2020-03-13 14:00:00 19.5 10 Norte 21 Norte 0 -- -- 56
2020-03-13 13:00:00 18.4 13 Norte 24 Norte 0 -- -- 58
2020-03-13 12:00:00 17.1 13 Norte 28 Norte 0 -- -- 61
2020-03-13 11:00:00 15.1 15 Norte 24 Norte 0 -- -- 67
2020-03-13 10:00:00 14 16 Norte 30 Norte 0 -- -- 70
2020-03-13 09:00:00 12.3 17 Norte 27 Norte 0 -- -- 77
2020-03-13 08:00:00 11.3 16 Norte 30 Norte 0 -- -- 81
2020-03-13 07:00:00 12 17 Norte 26 Norte 0 -- -- 79
2020-03-13 06:00:00 12.6 15 Norte 26 Nordeste 0 -- -- 78
2020-03-13 05:00:00 13.3 12 Norte 20 Norte 0 -- -- 78
2020-03-13 04:00:00 13.3 7 Nordeste 16 Nordeste 0 -- -- 79
2020-03-13 03:00:00 12.8 8 Nordeste 16 Nordeste 0 -- -- 81
2020-03-13 02:00:00 12.5 9 Nordeste 14 Nordeste 0 -- -- 84
2020-03-13 01:00:00 12.1 4 Noroeste 6 Nordeste 0 -- -- 87
2020-03-13 00:00:00 13.3 5 Nordeste 8 Nordeste 0 -- -- 84
2020-03-12 23:00:00 13.7 4 Norte 6 Norte 0 -- -- 83
2020-03-12 22:00:00 14.6 4 Norte 8 Norte 0 -- -- 78
2020-03-12 21:00:00 17.1 4 Nordeste 11 Noroeste 0 -- -- 69
2020-03-12 20:00:00 19.6 6 Noroeste 8 Oeste 0 -- -- 59
2020-03-12 19:00:00 21.8 5 Oeste 13 Sudoeste 0 -- -- 52
2020-03-12 18:00:00 24.1 6 Sudoeste 14 Sudoeste 0 -- -- 42
2020-03-12 17:00:00 24.8 7 Sudoeste 15 Sur 0 -- -- 39
2020-03-12 16:00:00 24 7 Oeste 14 Sudoeste 0 -- -- 42
2020-03-12 15:00:00 23.4 9 Sudoeste 17 Sudoeste 0 -- -- 40
2020-03-12 14:00:00 23.7 10 Sur 26 Sudoeste 0 -- -- 43
2020-03-12 13:00:00 23.7 13 Sur 23 Sur 0 -- -- 46
2020-03-12 12:00:00 21.4 9 Sudoeste 17 Oeste 0 -- -- 55
2020-03-12 11:00:00 18.2 0 Calma 7 Nordeste 0 -- -- 64
2020-03-12 10:00:00 14.6 4 Nordeste 6 Nordeste 0 -- -- 76
2020-03-12 09:00:00 10.6 3 Norte 6 Norte 0 -- -- 88
2020-03-12 08:00:00 9.9 6 Nordeste 10 Nordeste 0 -- -- 90
2020-03-12 07:00:00 9.6 5 Nordeste 8 Nordeste 0 -- -- 91
2020-03-12 06:00:00 10.7 5 Nordeste 12 Nordeste 0 -- -- 87
2020-03-12 05:00:00 12.1 7 Nordeste 14 Nordeste 0 -- -- 82
2020-03-12 04:00:00 12.6 7 Nordeste 11 Nordeste 0 -- -- 82
2020-03-12 03:00:00 12.3 7 Este 12 Nordeste 0 -- -- 86
2020-03-12 02:00:00 14 8 Nordeste 12 Nordeste 0 -- -- 78
2020-03-12 01:00:00 13.8 6 Nordeste 10 Nordeste 0 -- -- 83
2020-03-12 00:00:00 13.8 4 Este 6 Nordeste 0 -- -- 86
2020-03-11 23:00:00 15 5 Nordeste 10 Nordeste 0 -- -- 82
2020-03-11 22:00:00 15.6 8 Nordeste 9 Este 0 -- -- 81
2020-03-11 21:00:00 16.4 4 Norte 6 Norte 0 -- -- 79
2020-03-11 20:00:00 18.1 2 Nordeste 6 Este 0 -- -- 71
2020-03-11 19:00:00 20.3 3 Norte 5 Norte 0 -- -- 66
2020-03-11 18:00:00 22.8 2 Oeste 7 Sudoeste 0 -- -- 55
2020-03-11 17:00:00 24.2 6 Sudoeste 10 Sudoeste 0 -- -- 43
2020-03-11 16:00:00 25.1 8 Sudoeste 12 Sur 0 -- -- 38
2020-03-11 15:00:00 25.1 5 Sudoeste 12 Sudoeste 0 -- -- 44
2020-03-11 14:00:00 24 4 Sur 12 Sur 0 -- -- 48
2020-03-11 13:00:00 23 5 Oeste 10 Sudoeste 0 -- -- 46
2020-03-11 12:00:00 21 3 Sudeste 8 Norte 0 -- -- 56
2020-03-11 11:00:00 17.2 5 Norte 13 Nordeste 0 -- -- 62
2020-03-11 10:00:00 14.5 9 Nordeste 15 Nordeste 0 -- -- 68
2020-03-11 09:00:00 11.9 7 Nordeste 14 Nordeste 0 -- -- 78
2020-03-11 08:00:00 9.5 8 Nordeste 11 Este 0 -- -- 87
2020-03-11 07:00:00 9.6 7 Nordeste 13 Nordeste 0 -- -- 87
2020-03-11 06:00:00 10.1 9 Nordeste 15 Norte 0 -- -- 85
2020-03-11 05:00:00 10.2 10 Nordeste 15 Nordeste 0 -- -- 88
2020-03-11 04:00:00 9.6 6 Nordeste 9 Este 0 -- -- 90
2020-03-11 03:00:00 9.8 6 Nordeste 9 Nordeste 0 -- -- 90
2020-03-11 02:00:00 10.7 7 Nordeste 10 Nordeste 0 -- -- 89
2020-03-11 01:00:00 11.2 5 Nordeste 10 Nordeste 0 -- -- 87
2020-03-11 00:00:00 11.6 5 Nordeste 9 Nordeste 0 -- -- 85
2020-03-10 23:00:00 12 5 Norte 8 Norte 0 -- -- 82
2020-03-10 22:00:00 13 3 Norte 6 Nordeste 0 -- -- 78
2020-03-10 21:00:00 15.1 3 Norte 7 Norte 0 -- -- 68
2020-03-10 20:00:00 18.3 5 Sur 7 Sudoeste 0 -- -- 56
2020-03-10 19:00:00 21.6 5 Sudoeste 12 Sur 0 -- -- 45
2020-03-10 18:00:00 23.3 7 Sur 13 Sudoeste 0 -- -- 39
2020-03-10 17:00:00 24 4 Sudoeste 12 Sudoeste 0 -- -- 36
2020-03-10 16:00:00 23.1 5 Sudoeste 13 Sudoeste 0 -- -- 37
2020-03-10 15:00:00 22.3 6 Sudoeste 14 Sur 0 -- -- 38
2020-03-10 14:00:00 19.9 8 Sur 16 Sur 0 -- -- 46
2020-03-10 13:00:00 19.9 6 Sudoeste 15 Sudoeste 0 -- -- 46
2020-03-10 12:00:00 16.6 5 Noroeste 8 Noroeste 0 -- -- 50
2020-03-10 11:00:00 14.9 3 Nordeste 7 Este 0 -- -- 56
2020-03-10 10:00:00 12.5 2 Este 7 Sudoeste 0 -- -- 66
2020-03-10 09:00:00 9.9 6 Sudoeste 16 Norte 0 -- -- 69
2020-03-10 08:00:00 10.8 9 Nordeste 17 Nordeste 0 -- -- 61
2020-03-10 07:00:00 10.2 9 Norte 17 Nordeste 0 -- -- 64
2020-03-10 06:00:00 7.6 4 Nordeste 12 Norte 0 -- -- 78
2020-03-10 05:00:00 7.1 5 Norte 10 Norte 0 -- -- 79
2020-03-10 04:00:00 8.4 7 Nordeste 9 Norte 0 -- -- 74
2020-03-10 03:00:00 9.8 5 Norte 17 Norte 0 -- -- 65
2020-03-10 02:00:00 9.5 8 Norte 14 Norte 0 -- -- 65
2020-03-10 01:00:00 11.6 5 Sur 23 Norte 0 -- -- 58
2020-03-10 00:00:00 12 11 Norte 22 Norte 0 -- -- 57
2020-03-09 23:00:00 11.9 9 Este 24 Nordeste 0 -- -- 60
2020-03-09 22:00:00 12.4 11 Norte 19 Norte 0 -- -- 56
2020-03-09 21:00:00 14.2 11 Norte 19 Nordeste 0 -- -- 49
2020-03-09 20:00:00 14.7 10 Norte 14 Norte 0 -- -- 45
2020-03-09 19:00:00 16.8 4 Norte 13 Nordeste 0 -- -- 39
2020-03-09 18:00:00 19.5 6 Nordeste 17 Este 0 -- -- 29
2020-03-09 17:00:00 19.8 8 Nordeste 23 Nordeste 0 -- -- 31
2020-03-09 16:00:00 20 17 Nordeste 25 Nordeste 0 -- -- 27
2020-03-09 15:00:00 19.2 12 Norte 23 Nordeste 0 -- -- 35
2020-03-09 14:00:00 18.2 14 Nordeste 25 Norte 0 -- -- 40
2020-03-09 13:00:00 16.3 19 Norte 31 Norte 0 -- -- 46
2020-03-09 12:00:00 14.5 14 Norte 36 Norte 0 -- -- 49
2020-03-09 11:00:00 12.9 20 Norte 33 Nordeste 0 -- -- 55
2020-03-09 10:00:00 11.1 14 Nordeste 29 Norte 0 -- -- 62
2020-03-09 09:00:00 9.3 16 Norte 30 Nordeste 0 -- -- 68
2020-03-09 08:00:00 8.5 15 Norte 26 Norte 0 -- -- 73
2020-03-09 07:00:00 8.8 15 Norte 23 Norte 0 -- -- 73
2020-03-09 06:00:00 9.4 16 Nordeste 30 Nordeste 0 -- -- 73
2020-03-09 05:00:00 9.5 16 Nordeste 27 Norte 0 -- -- 75
2020-03-09 04:00:00 9.8 18 Nordeste 27 Nordeste 0 -- -- 77
2020-03-09 03:00:00 8.8 6 Nordeste 16 Nordeste 0 -- -- 83
2020-03-09 02:00:00 8.6 4 Nordeste 13 Nordeste 0 -- -- 83
2020-03-09 01:00:00 7.4 8 Norte 9 Norte 0 -- -- 90
2020-03-09 00:00:00 8.2 6 Noroeste 10 Noroeste 0 -- -- 88